createdAt,value
2023-05-10T00:00:23.594Z,66077.31
2023-05-10T00:05:46.615Z,66065.06
2023-05-10T00:10:50.980Z,66127.19
2023-05-10T00:15:56.259Z,66126.13
2023-05-10T00:21:00.119Z,66078.47
2023-05-10T00:26:04.163Z,66089.81
2023-05-10T00:31:09.531Z,66122.75
2023-05-10T00:36:13.508Z,65971.38
2023-05-10T00:41:18.810Z,65841.97
2023-05-10T00:46:25.250Z,65744.78
2023-05-10T00:51:29.234Z,65702.50
2023-05-10T00:56:33.692Z,65675.94
2023-05-10T01:01:40.043Z,65742.13
2023-05-10T01:06:44.479Z,65772.66
2023-05-10T01:11:49.452Z,65758.59
2023-05-10T01:16:55.406Z,65702.41
2023-05-10T01:22:04.364Z,65739.91
2023-05-10T01:27:28.683Z,65739.47
2023-05-10T01:32:38.932Z,65772.47
2023-05-10T01:37:47.568Z,65759.13
2023-05-10T01:42:56.597Z,65800.91
2023-05-10T01:48:08.542Z,65752.19
2023-05-10T01:53:15.248Z,65718.63
2023-05-10T01:58:23.328Z,65726.44
2023-05-10T02:03:31.509Z,65753.25
2023-05-10T02:08:38.213Z,65699.84
2023-05-10T02:13:44.591Z,65797.06
2023-05-10T02:18:52.546Z,65799.75
2023-05-10T02:23:57.502Z,65781.03
2023-05-10T02:29:04.385Z,65740.00
2023-05-10T02:34:11.748Z,65749.06
2023-05-10T02:39:17.812Z,65749.94
2023-05-10T02:44:23.138Z,65715.22
2023-05-10T02:49:28.539Z,65693.44
2023-05-10T02:54:35.333Z,65670.56
2023-05-10T02:59:39.240Z,65694.94
2023-05-10T03:04:44.590Z,65752.81
2023-05-10T03:09:51.130Z,65738.72
2023-05-10T03:15:13.343Z,65729.84
2023-05-10T03:20:26.767Z,65717.03
2023-05-10T03:25:33.281Z,65707.94
2023-05-10T03:30:39.421Z,65759.66
2023-05-10T03:35:46.836Z,65728.03
2023-05-10T03:40:51.804Z,65686.59
2023-05-10T03:45:55.851Z,65766.06
2023-05-10T03:51:01.276Z,65857.56
2023-05-10T03:56:05.556Z,65870.22
2023-05-10T04:01:09.632Z,65876.19
2023-05-10T04:06:15.090Z,65818.44
2023-05-10T04:11:19.127Z,65859.06
2023-05-10T04:16:23.014Z,65886.25
2023-05-10T04:21:28.455Z,66053.38
2023-05-10T04:26:32.412Z,66022.22
2023-05-10T04:31:37.367Z,65997.63
2023-05-10T04:36:42.660Z,65985.81
2023-05-10T04:41:46.593Z,65999.22
2023-05-10T04:46:50.506Z,66007.34
2023-05-10T04:51:56.075Z,66025.97
2023-05-10T04:57:00.034Z,66095.44
2023-05-10T05:02:04.583Z,66129.25
2023-05-10T05:07:10.049Z,66187.22
2023-05-10T05:12:15.338Z,66257.03
2023-05-10T05:17:19.511Z,66307.88
2023-05-10T05:22:28.517Z,66240.81
2023-05-10T05:27:32.482Z,66303.06
2023-05-10T05:32:36.853Z,66302.50
2023-05-10T05:37:42.222Z,66358.31
2023-05-10T05:42:46.156Z,66294.38
2023-05-10T05:47:50.187Z,66317.53
2023-05-10T05:52:55.534Z,66390.16
2023-05-10T05:57:59.419Z,66474.31
2023-05-10T06:03:03.501Z,66604.81
2023-05-10T06:08:08.908Z,66705.94
2023-05-10T06:13:12.959Z,66575.41
2023-05-10T06:18:16.944Z,66534.47
2023-05-10T06:23:23.277Z,66633.47
2023-05-10T06:28:27.172Z,66748.59
2023-05-10T06:33:31.112Z,66861.44
2023-05-10T06:38:36.498Z,66795.91
2023-05-10T06:43:42.288Z,66723.78
2023-05-10T06:48:45.908Z,66711.91
2023-05-10T06:53:51.222Z,66667.25
2023-05-10T06:58:55.267Z,66698.56
2023-05-10T07:03:59.160Z,66760.44
2023-05-10T07:09:04.829Z,66714.63
2023-05-10T07:14:08.821Z,66623.09
2023-05-10T07:19:12.783Z,66654.91
2023-05-10T07:24:18.730Z,66654.44
2023-05-10T07:29:22.800Z,66665.72
2023-05-10T07:34:26.773Z,66645.81
2023-05-10T07:39:32.213Z,66673.66
2023-05-10T07:44:36.163Z,66713.00
2023-05-10T07:49:40.228Z,66724.22
2023-05-10T07:54:45.674Z,66729.00
2023-05-10T07:59:49.547Z,66793.28
2023-05-10T08:04:55.015Z,66787.81
2023-05-10T08:10:00.256Z,66793.88
2023-05-10T08:15:04.745Z,66705.31
2023-05-10T08:20:09.674Z,66768.97
2023-05-10T08:25:17.052Z,66720.53
2023-05-10T08:30:21.419Z,66728.59
2023-05-10T08:35:25.553Z,66771.13
2023-05-10T08:40:31.290Z,66747.44
2023-05-10T08:45:35.797Z,66779.28
2023-05-10T08:50:41.625Z,66772.19
2023-05-10T08:55:47.273Z,66787.72
2023-05-10T09:00:53.493Z,66794.19
2023-05-10T09:05:57.931Z,66906.84
2023-05-10T09:11:03.943Z,66896.00
2023-05-10T09:16:20.481Z,66956.91
2023-05-10T09:21:27.528Z,66869.75
2023-05-10T09:26:33.001Z,66854.13
2023-05-10T09:31:48.884Z,66855.75
2023-05-10T09:36:56.318Z,66831.50
2023-05-10T09:42:04.830Z,66879.81
2023-05-10T09:47:08.794Z,66870.28
2023-05-10T09:52:12.687Z,66897.75
2023-05-10T09:57:23.476Z,66950.59
2023-05-10T10:02:31.377Z,66981.22
2023-05-10T10:07:36.328Z,66893.91
2023-05-10T10:12:43.980Z,66883.69
2023-05-10T10:17:48.936Z,66917.06
2023-05-10T10:22:53.623Z,66943.03
2023-05-10T10:28:11.488Z,66896.47
2023-05-10T10:33:42.453Z,66925.16
2023-05-10T10:39:02.313Z,66980.06
2023-05-10T10:44:27.065Z,66962.38
2023-05-10T10:49:34.628Z,66974.75
2023-05-10T10:54:39.336Z,66932.25
2023-05-10T10:59:48.049Z,66988.84
2023-05-10T11:04:52.005Z,66983.25
2023-05-10T11:10:06.121Z,66973.69
2023-05-10T11:15:12.630Z,67044.84
2023-05-10T11:20:17.276Z,67008.19
2023-05-10T11:25:21.958Z,67182.53
2023-05-10T11:30:27.601Z,67139.75
2023-05-10T11:35:31.767Z,67372.06
2023-05-10T11:40:36.081Z,67297.59
2023-05-10T11:45:43.627Z,67381.16
2023-05-10T11:50:48.485Z,67249.84
2023-05-10T11:55:52.567Z,67341.75
2023-05-10T12:00:58.483Z,67330.44
2023-05-10T12:06:05.696Z,67395.22
2023-05-10T12:11:11.409Z,67342.28
2023-05-10T12:16:18.695Z,67320.72
2023-05-10T12:21:23.524Z,67366.59
2023-05-10T12:26:28.508Z,67354.75
2023-05-10T12:31:33.917Z,67458.56
2023-05-10T12:36:41.042Z,67501.78
2023-05-10T12:41:45.290Z,67427.19
2023-05-10T12:46:50.996Z,67360.78
2023-05-10T12:51:55.117Z,67375.88
2023-05-10T12:56:59.083Z,67449.91
2023-05-10T13:02:04.508Z,67418.50
2023-05-10T13:07:08.798Z,67426.72
2023-05-10T13:12:12.966Z,67459.16
2023-05-10T13:17:18.355Z,67496.41
2023-05-10T13:22:32.581Z,67301.78
2023-05-10T13:27:43.680Z,67308.75
2023-05-10T13:32:49.149Z,67360.09
2023-05-10T13:37:56.342Z,67459.63
2023-05-10T13:43:00.364Z,67454.72
2023-05-10T13:48:06.303Z,67358.56
2023-05-10T13:53:10.389Z,67207.97
2023-05-10T13:58:14.470Z,67233.75
2023-05-10T14:03:19.969Z,67265.63
2023-05-10T14:08:24.203Z,67258.72
2023-05-10T14:13:28.628Z,67226.19
2023-05-10T14:18:34.075Z,67197.63
2023-05-10T14:23:38.062Z,67177.00
2023-05-10T14:28:42.156Z,67223.34
2023-05-10T14:33:47.790Z,67232.66
2023-05-10T14:38:51.891Z,67144.13
2023-05-10T14:43:56.367Z,67185.75
2023-05-10T14:49:01.697Z,67240.22
2023-05-10T14:54:05.750Z,67255.69
2023-05-10T14:59:09.939Z,67271.50
2023-05-10T15:04:17.562Z,67291.47
2023-05-10T15:09:22.131Z,67275.88
2023-05-10T15:14:26.167Z,67300.72
2023-05-10T15:19:31.527Z,67261.47
2023-05-10T15:24:35.492Z,67237.59
2023-05-10T15:29:39.581Z,67282.97
2023-05-10T15:34:45.094Z,67230.50
2023-05-10T15:39:48.794Z,67166.72
2023-05-10T15:45:12.420Z,67166.78
2023-05-10T15:50:18.380Z,67093.53
2023-05-10T15:55:22.353Z,67155.47
2023-05-10T16:00:26.484Z,67075.47
2023-05-10T16:05:33.688Z,66951.66
2023-05-10T16:10:38.175Z,66857.81
2023-05-10T16:15:42.116Z,66834.66
2023-05-10T16:20:47.609Z,66781.41
2023-05-10T16:25:51.495Z,66770.59
2023-05-10T16:30:55.450Z,66794.25
2023-05-10T16:36:00.756Z,66862.50
2023-05-10T16:41:04.951Z,66813.19
2023-05-10T16:46:12.523Z,66789.91
2023-05-10T16:51:17.883Z,66817.34
2023-05-10T16:56:23.415Z,66813.13
2023-05-10T17:01:27.602Z,66774.91
2023-05-10T17:06:33.923Z,66701.16
2023-05-10T17:11:38.028Z,66730.28
2023-05-10T17:16:42.820Z,66716.25
2023-05-10T17:21:48.191Z,66719.47
2023-05-10T17:26:53.325Z,66685.09
2023-05-10T17:32:00.776Z,66692.56
2023-05-10T17:37:06.404Z,66752.81
2023-05-10T17:42:10.311Z,66649.50
2023-05-10T17:47:14.336Z,66624.78
2023-05-10T17:52:19.948Z,66682.25
2023-05-10T17:57:24.800Z,66659.19
2023-05-10T18:02:28.776Z,66674.25
2023-05-10T18:07:35.913Z,66597.28
2023-05-10T18:12:39.956Z,66616.81
2023-05-10T18:17:44.124Z,66583.38
2023-05-10T18:22:49.896Z,66543.59
2023-05-10T18:27:53.976Z,66557.66
2023-05-10T18:32:58.149Z,66543.59
2023-05-10T18:38:03.687Z,66515.13
2023-05-10T18:43:07.595Z,66539.38
2023-05-10T18:48:11.522Z,66570.41
2023-05-10T18:53:17.104Z,66572.81
2023-05-10T18:58:21.214Z,66523.72
2023-05-10T19:03:25.676Z,66522.09
2023-05-10T19:08:31.229Z,66512.44
2023-05-10T19:13:35.304Z,66490.41
2023-05-10T19:18:40.584Z,66486.56
2023-05-10T19:23:45.884Z,66458.25
2023-05-10T19:28:52.456Z,66476.97
2023-05-10T19:33:58.052Z,66431.31
2023-05-10T19:39:05.989Z,66428.09
2023-05-10T19:44:09.951Z,66449.06
2023-05-10T19:49:13.880Z,66490.25
2023-05-10T19:54:19.258Z,66435.63
2023-05-10T19:59:23.516Z,66437.16
2023-05-10T20:04:28.948Z,66449.06
2023-05-10T20:09:34.727Z,66466.59
2023-05-10T20:14:38.636Z,66431.88
2023-05-10T20:19:42.817Z,66429.19
2023-05-10T20:24:48.557Z,66439.91
2023-05-10T20:29:52.375Z,66370.66
2023-05-10T20:34:56.509Z,66388.28
2023-05-10T20:40:02.066Z,66415.22
2023-05-10T20:45:07.279Z,66364.75
2023-05-10T20:50:12.366Z,66333.47
2023-05-10T20:55:17.783Z,66316.44
2023-05-10T21:00:22.294Z,66310.56
2023-05-10T21:05:26.430Z,66308.97
2023-05-10T21:10:31.782Z,66324.50
2023-05-10T21:15:35.780Z,66255.75
2023-05-10T21:20:39.674Z,66261.75
2023-05-10T21:25:45.112Z,66242.97
2023-05-10T21:30:49.099Z,66224.66
2023-05-10T21:35:53.463Z,66233.75
2023-05-10T21:40:58.738Z,66243.41
2023-05-10T21:46:03.053Z,66168.38
2023-05-10T21:51:07.166Z,66178.09
2023-05-10T21:56:12.776Z,66194.63
2023-05-10T22:01:18.052Z,66216.69
2023-05-10T22:06:21.980Z,66218.84
2023-05-10T22:11:27.510Z,66164.72
2023-05-10T22:16:31.696Z,66223.03
2023-05-10T22:21:35.714Z,66163.00
2023-05-10T22:26:40.937Z,66178.56
2023-05-10T22:31:44.906Z,66137.91
2023-05-10T22:36:49.647Z,66113.19
2023-05-10T22:41:54.922Z,66123.34
2023-05-10T22:46:58.862Z,66077.91
2023-05-10T22:52:02.865Z,66052.69
2023-05-10T22:57:08.369Z,66013.66
2023-05-10T23:02:14.329Z,65969.88
2023-05-10T23:07:18.306Z,66024.28
2023-05-10T23:12:23.533Z,66044.09
2023-05-10T23:17:27.564Z,65976.19
2023-05-10T23:22:31.515Z,65948.91
2023-05-10T23:27:36.834Z,66007.16
2023-05-10T23:32:40.721Z,65999.75
2023-05-10T23:37:44.758Z,66056.41
2023-05-10T23:42:50.160Z,66022.75
2023-05-10T23:47:54.298Z,66030.72
2023-05-10T23:52:58.333Z,66000.38
2023-05-10T23:58:03.706Z,66098.63
